Cabool, Missouri
Current Conditions -  °F | °C
As of 10:28 PM on Monday 22 Dec 2014 (Local Time) from KUNO Reporting Station
Overcast Overcast  
Wind Chill: 45°   Ceiling: 900
Heat Index: 48°   Visibility: 10mi
Dew Point: 45°   Wind: 7mph
Humidity: 89%   Direction: 240°WSW
Pressure: 29.62"   Gusts: NA
Location:  37.12°N, 92.1°W
Report Text: KUNO 230428Z AUTO 24006KT 10SM BKN009 BKN015 OVC048 09/07 A2962 RMK AO2 CIG 006V010 T00890072
Loading
Personal Weather Stations






























Interactive Weather Map New forecast layout! Learn more

10-Day Weather Forecast

Advertisements
Track Severe Weather on mobile